^^
Your Local Weather - Clay, NY Station Historical Data
Daily Summary for December 22, 2017 Units:  English    Metric   Both
« Previous Day
Next Day »
Daily Weekly Monthly Yearly Custom
  High: Low: Average:
Temperature: 27.5 °F 21.6 °F 23.7 °F
Dew Point: 25.2 °F 16.1 °F 21 °F
Humidity: 91% 71% 89%
Wind Speed: 7.0mph 0.0mph 3mph
Wind Gust: 13.0mph - -
Wind- - East
Pressure: 30.25 in 30.02 in -
Precipitation: 0.00 in    
Historical Graphs
 
 
Tabular Data for December 22, 2017
Time Temperature Dew Point Pressure Wind Wind Speed Wind Gust Humidity Rainfall Rate (Hourly) solar
00:04 24.2 °F 16.1 °F 30.25 in ENE 2.0 mph 4.0 mph 71% 0.00 in 0 W/m2
00:10 24.1 °F 16.4 °F 30.25 in East 1.0 mph 2.0 mph 72% 0.00 in 0 W/m2
00:22 23.4 °F 16.9 °F 30.25 in ENE 1.0 mph 3.0 mph 76% 0.00 in 0 W/m2
00:28 23.1 °F 17.3 °F 30.25 in ENE 1.0 mph 3.0 mph 78% 0.00 in 0 W/m2
00:34 22.7 °F 17.7 °F 30.25 in ENE 1.0 mph 3.0 mph 81% 0.00 in 0 W/m2
00:36 22.7 °F 17.7 °F 30.25 in ENE 1.0 mph 3.0 mph 81% 0.00 in 0 W/m2
00:42 22.4 °F 18.0 °F 30.25 in ENE 1.0 mph 3.0 mph 83% 0.00 in 0 W/m2
00:48 22.3 °F 18.2 °F 30.24 in ENE 1.0 mph 3.0 mph 84% 0.00 in 0 W/m2
00:52 22.2 °F 18.1 °F 30.24 in ENE 1.0 mph 1.0 mph 84% 0.00 in 0 W/m2
00:58 22.1 °F 18.3 °F 30.24 in SSW 2.0 mph 2.0 mph 85% 0.00 in 0 W/m2
01:00 22.1 °F 18.3 °F 30.24 in SSW 2.0 mph 2.0 mph 85% 0.00 in 0 W/m2
01:06 22.1 °F 18.6 °F 30.24 in NE 1.0 mph 3.0 mph 86% 0.00 in 0 W/m2
01:12 22.0 °F 18.5 °F 30.24 in NE 1.0 mph 3.0 mph 86% 0.00 in 0 W/m2
01:24 22.1 °F 18.8 °F 30.24 in NE 1.0 mph 2.0 mph 87% 0.00 in 0 W/m2
01:30 22.2 °F 18.9 °F 30.24 in NE 1.0 mph 3.0 mph 87% 0.00 in 0 W/m2
01:36 22.2 °F 18.9 °F 30.24 in NE 1.0 mph 3.0 mph 87% 0.00 in 0 W/m2
01:38 22.2 °F 18.9 °F 30.24 in NE 2.0 mph 3.0 mph 87% 0.00 in 0 W/m2
01:44 22.2 °F 19.2 °F 30.24 in NE 1.0 mph 1.0 mph 88% 0.00 in 0 W/m2
01:48 22.2 °F 19.2 °F 30.24 in ENE 1.0 mph 3.0 mph 88% 0.00 in 0 W/m2
01:54 22.2 °F 19.2 °F 30.24 in ENE 1.0 mph 3.0 mph 88% 0.00 in 0 W/m2
02:00 22.3 °F 19.3 °F 30.25 in ENE 1.0 mph 1.0 mph 88% 0.00 in 0 W/m2
02:06 22.3 °F 19.3 °F 30.25 in ENE 1.0 mph 1.0 mph 88% 0.00 in 0 W/m2
02:14 22.3 °F 19.3 °F 30.25 in ENE 1.0 mph 1.0 mph 88% 0.00 in 0 W/m2
02:20 22.4 °F 19.4 °F 30.25 in ENE 1.0 mph 3.0 mph 88% 0.00 in 0 W/m2
02:24 22.3 °F 19.3 °F 30.25 in ENE 1.0 mph 3.0 mph 88% 0.00 in 0 W/m2
02:30 22.3 °F 19.6 °F 30.25 in ENE 2.0 mph 4.0 mph 89% 0.00 in 0 W/m2
02:36 22.4 °F 19.6 °F 30.25 in ENE 2.0 mph 4.0 mph 89% 0.00 in 0 W/m2
02:42 22.4 °F 19.6 °F 30.25 in ENE 2.0 mph 2.0 mph 89% 0.00 in 0 W/m2
02:48 22.4 °F 19.6 °F 30.25 in ENE 1.0 mph 2.0 mph 89% 0.00 in 0 W/m2
02:54 22.4 °F 19.6 °F 30.25 in ENE 1.0 mph 3.0 mph 89% 0.00 in 0 W/m2
03:00 22.4 °F 19.6 °F 30.25 in ENE 1.0 mph 1.0 mph 89% 0.00 in 0 W/m2
03:06 22.2 °F 19.5 °F 30.25 in ENE 2.0 mph 2.0 mph 89% 0.00 in 0 W/m2
03:18 22.0 °F 19.3 °F 30.24 in East 2.0 mph 3.0 mph 89% 0.00 in 0 W/m2
03:24 21.9 °F 19.2 °F 30.24 in East 2.0 mph 5.0 mph 89% 0.00 in 0 W/m2
03:38 21.7 °F 19.0 °F 30.23 in East 4.0 mph 6.0 mph 89% 0.00 in 0 W/m2
03:44 21.7 °F 19.0 °F 30.23 in ENE 3.0 mph 3.0 mph 89% 0.00 in 0 W/m2
03:52 21.7 °F 19.0 °F 30.22 in SE 3.0 mph 5.0 mph 89% 0.00 in 0 W/m2
03:58 21.8 °F 19.1 °F 30.22 in East 3.0 mph 5.0 mph 89% 0.00 in 0 W/m2
04:10 21.9 °F 19.2 °F 30.21 in ENE 2.0 mph 4.0 mph 89% 0.00 in 0 W/m2
04:16 21.9 °F 19.2 °F 30.20 in East 3.0 mph 4.0 mph 89% 0.00 in 0 W/m2
04:22 21.9 °F 19.2 °F 30.20 in East 3.0 mph 3.0 mph 89% 0.00 in 0 W/m2
04:34 22.0 °F 19.3 °F 30.20 in NE 3.0 mph 4.0 mph 89% 0.00 in 0 W/m2
04:40 22.0 °F 19.3 °F 30.20 in East 3.0 mph 7.0 mph 89% 0.00 in 0 W/m2
04:58 22.2 °F 19.5 °F 30.19 in ESE 2.0 mph 5.0 mph 89% 0.00 in 0 W/m2
05:00 22.3 °F 19.6 °F 30.19 in East 3.0 mph 3.0 mph 89% 0.00 in 0 W/m2
05:06 22.3 °F 19.6 °F 30.20 in East 3.0 mph 5.0 mph 89% 0.00 in 0 W/m2
05:18 22.4 °F 19.9 °F 30.19 in ENE 3.0 mph 5.0 mph 90% 0.00 in 0 W/m2
05:30 22.5 °F 20.0 °F 30.19 in ENE 3.0 mph 9.0 mph 90% 0.00 in 0 W/m2
05:36 22.5 °F 20.0 °F 30.19 in ESE 3.0 mph 9.0 mph 90% 0.00 in 0 W/m2
05:42 22.5 °F 20.0 °F 30.19 in ESE 3.0 mph 3.0 mph 90% 0.00 in 0 W/m2
05:48 22.5 °F 20.0 °F 30.19 in ENE 3.0 mph 4.0 mph 90% 0.00 in 0 W/m2
06:00 22.5 °F 20.0 °F 30.18 in ENE 3.0 mph 3.0 mph 90% 0.00 in 0 W/m2
06:06 22.5 °F 20.0 °F 30.18 in NE 3.0 mph 6.0 mph 90% 0.00 in 0 W/m2
06:12 22.6 °F 20.1 °F 30.17 in ENE 4.0 mph 7.0 mph 90% 0.00 in 0 W/m2
06:18 22.6 °F 20.1 °F 30.17 in East 4.0 mph 7.0 mph 90% 0.00 in 0 W/m2
06:20 22.6 °F 20.1 °F 30.17 in ENE 4.0 mph 4.0 mph 90% 0.00 in 0 W/m2
06:26 22.7 °F 20.2 °F 30.17 in ENE 3.0 mph 6.0 mph 90% 0.00 in 0 W/m2
06:32 22.8 °F 20.3 °F 30.16 in ENE 4.0 mph 10.0 mph 90% 0.00 in 0 W/m2
06:38 22.9 °F 20.4 °F 30.16 in ESE 4.0 mph 10.0 mph 90% 0.00 in 0 W/m2
06:44 22.9 °F 20.4 °F 30.16 in East 3.0 mph 11.0 mph 90% 0.00 in 0 W/m2
06:56 23.1 °F 20.6 °F 30.16 in East 3.0 mph 7.0 mph 90% 0.00 in 0 W/m2
07:02 23.1 °F 20.6 °F 30.15 in ENE 3.0 mph 5.0 mph 90% 0.00 in 0 W/m2
07:08 23.1 °F 20.6 °F 30.14 in ESE 4.0 mph 6.0 mph 90% 0.00 in 0 W/m2
07:18 23.2 °F 20.4 °F 30.14 in ENE 4.0 mph 5.0 mph 89% 0.00 in 0 W/m2
07:24 23.3 °F 20.5 °F 30.14 in NE 4.0 mph 5.0 mph 89% 0.00 in 0 W/m2
07:30 23.3 °F 20.5 °F 30.13 in East 4.0 mph 4.0 mph 89% 0.00 in 0 W/m2
07:42 23.3 °F 20.5 °F 30.13 in ENE 4.0 mph 7.0 mph 89% 0.00 in 0 W/m2
07:44 23.4 °F 20.6 °F 30.13 in East 4.0 mph 7.0 mph 89% 0.00 in 0 W/m2
07:50 23.3 °F 20.5 °F 30.13 in NE 4.0 mph 5.0 mph 89% 0.00 in 0 W/m2
07:56 23.4 °F 20.6 °F 30.13 in East 4.0 mph 5.0 mph 89% 0.00 in 0 W/m2
08:02 23.5 °F 20.7 °F 30.12 in East 5.0 mph 6.0 mph 89% 0.00 in 0 W/m2
08:08 23.5 °F 20.5 °F 30.11 in NE 5.0 mph 6.0 mph 88% 0.00 in 0 W/m2
08:14 23.5 °F 20.5 °F 30.11 in NE 4.0 mph 5.0 mph 88% 0.00 in 5 W/m2
08:20 23.5 °F 20.5 °F 30.12 in ENE 5.0 mph 5.0 mph 88% 0.00 in 5 W/m2
08:26 23.3 °F 20.3 °F 30.11 in ENE 4.0 mph 7.0 mph 88% 0.00 in 5 W/m2
08:38 23.0 °F 20.0 °F 30.11 in ENE 5.0 mph 5.0 mph 88% 0.00 in 11 W/m2
08:50 22.9 °F 19.9 °F 30.12 in NE 5.0 mph 5.0 mph 88% 0.00 in 7 W/m2
08:56 22.9 °F 19.9 °F 30.12 in East 4.0 mph 5.0 mph 88% 0.00 in 9 W/m2
09:02 22.9 °F 19.6 °F 30.11 in East 4.0 mph 6.0 mph 87% 0.00 in 14 W/m2
09:20 22.7 °F 19.4 °F 30.12 in ENE 6.0 mph 13.0 mph 87% 0.00 in 18 W/m2
09:22 22.5 °F 19.2 °F 30.12 in ESE 7.0 mph 13.0 mph 87% 0.00 in 19 W/m2
09:28 22.4 °F 19.1 °F 30.12 in SSE 6.0 mph 13.0 mph 87% 0.00 in 19 W/m2
09:34 22.4 °F 19.1 °F 30.13 in NE 4.0 mph 9.0 mph 87% 0.00 in 21 W/m2
09:38 22.3 °F 19.0 °F 30.13 in East 5.0 mph 9.0 mph 87% 0.00 in 21 W/m2
09:44 22.1 °F 19.1 °F 30.13 in ENE 6.0 mph 8.0 mph 88% 0.00 in 21 W/m2
09:46 22.1 °F 19.1 °F 30.13 in ENE 5.0 mph 8.0 mph 88% 0.00 in 21 W/m2
09:52 22.1 °F 19.1 °F 30.12 in SE 6.0 mph 8.0 mph 88% 0.00 in 28 W/m2
09:58 22.0 °F 19.0 °F 30.11 in East 5.0 mph 9.0 mph 88% 0.00 in 35 W/m2
10:04 22.1 °F 19.1 °F 30.12 in ENE 5.0 mph 5.0 mph 88% 0.00 in 32 W/m2
10:10 22.0 °F 19.0 °F 30.11 in ESE 5.0 mph 5.0 mph 88% 0.00 in 28 W/m2
10:22 21.9 °F 18.9 °F 30.11 in ENE 6.0 mph 7.0 mph 88% 0.00 in 33 W/m2
10:32 21.8 °F 19.1 °F 30.11 in SE 6.0 mph 6.0 mph 89% 0.00 in 26 W/m2
10:44 21.7 °F 19.0 °F 30.10 in East 6.0 mph 7.0 mph 89% 0.00 in 33 W/m2
10:50 21.7 °F 19.0 °F 30.10 in NNE 5.0 mph 5.0 mph 89% 0.00 in 37 W/m2
10:56 21.7 °F 19.0 °F 30.10 in ENE 6.0 mph 10.0 mph 89% 0.00 in 30 W/m2
11:04 21.8 °F 19.1 °F 30.10 in East 3.0 mph 3.0 mph 89% 0.00 in 35 W/m2
11:10 21.7 °F 19.0 °F 30.09 in ESE 5.0 mph 5.0 mph 89% 0.00 in 44 W/m2
11:16 21.7 °F 19.0 °F 30.09 in East 5.0 mph 8.0 mph 89% 0.00 in 49 W/m2
11:22 21.7 °F 19.0 °F 30.08 in ENE 4.0 mph 9.0 mph 89% 0.00 in 51 W/m2
11:28 21.6 °F 18.9 °F 30.08 in ENE 5.0 mph 10.0 mph 89% 0.00 in 58 W/m2
11:34 21.6 °F 18.9 °F 30.08 in SE 5.0 mph 5.0 mph 89% 0.00 in 58 W/m2
11:36 21.7 °F 19.0 °F 30.08 in ENE 5.0 mph 5.0 mph 89% 0.00 in 58 W/m2
11:48 21.7 °F 19.0 °F 30.08 in East 5.0 mph 7.0 mph 89% 0.00 in 53 W/m2
11:52 21.7 °F 19.0 °F 30.07 in ESE 5.0 mph 7.0 mph 89% 0.00 in 53 W/m2
11:58 21.7 °F 19.0 °F 30.07 in SE 5.0 mph 7.0 mph 89% 0.00 in 51 W/m2
12:04 21.8 °F 19.1 °F 30.07 in ENE 4.0 mph 5.0 mph 89% 0.00 in 62 W/m2
12:10 21.9 °F 19.2 °F 30.06 in East 5.0 mph 5.0 mph 89% 0.00 in 58 W/m2
12:16 21.9 °F 19.2 °F 30.07 in ENE 6.0 mph 10.0 mph 89% 0.00 in 56 W/m2
12:22 22.0 °F 19.3 °F 30.06 in East 6.0 mph 7.0 mph 89% 0.00 in 72 W/m2
12:36 22.3 °F 19.6 °F 30.06 in ENE 4.0 mph 7.0 mph 89% 0.00 in 63 W/m2
12:42 22.3 °F 19.6 °F 30.05 in ENE 4.0 mph 11.0 mph 89% 0.00 in 60 W/m2
12:46 22.3 °F 19.6 °F 30.05 in ENE 5.0 mph 11.0 mph 89% 0.00 in 58 W/m2
13:04 22.5 °F 19.7 °F 30.04 in East 5.0 mph 7.0 mph 89% 0.00 in 70 W/m2
13:10 22.6 °F 19.8 °F 30.04 in ENE 5.0 mph 5.0 mph 89% 0.00 in 69 W/m2
13:16 22.7 °F 19.9 °F 30.04 in East 6.0 mph 7.0 mph 89% 0.00 in 60 W/m2
13:22 22.8 °F 20.0 °F 30.04 in NE 5.0 mph 7.0 mph 89% 0.00 in 70 W/m2
13:28 22.8 °F 20.0 °F 30.03 in East 5.0 mph 7.0 mph 89% 0.00 in 70 W/m2
13:42 23.0 °F 20.2 °F 30.04 in East 5.0 mph 8.0 mph 89% 0.00 in 58 W/m2
13:46 23.0 °F 20.2 °F 30.03 in NE 5.0 mph 8.0 mph 89% 0.00 in 53 W/m2
13:52 23.0 °F 20.2 °F 30.03 in East 5.0 mph 7.0 mph 89% 0.00 in 63 W/m2
13:58 23.1 °F 20.3 °F 30.03 in ENE 4.0 mph 7.0 mph 89% 0.00 in 62 W/m2
14:04 23.2 °F 20.4 °F 30.03 in ESE 5.0 mph 7.0 mph 89% 0.00 in 54 W/m2
14:16 23.4 °F 20.6 °F 30.03 in ENE 4.0 mph 12.0 mph 89% 0.00 in 58 W/m2
14:22 23.5 °F 20.7 °F 30.03 in ENE 4.0 mph 5.0 mph 89% 0.00 in 62 W/m2
14:28 23.7 °F 20.9 °F 30.03 in East 3.0 mph 5.0 mph 89% 0.00 in 44 W/m2
14:34 23.8 °F 21.0 °F 30.03 in East 3.0 mph 8.0 mph 89% 0.00 in 40 W/m2
14:46 23.7 °F 20.9 °F 30.03 in East 4.0 mph 10.0 mph 89% 0.00 in 28 W/m2
14:52 23.6 °F 20.8 °F 30.03 in East 4.0 mph 5.0 mph 89% 0.00 in 26 W/m2
14:58 23.6 °F 20.8 °F 30.03 in East 4.0 mph 5.0 mph 89% 0.00 in 28 W/m2
15:00 23.6 °F 20.8 °F 30.03 in East 4.0 mph 5.0 mph 89% 0.00 in 30 W/m2
15:06 23.7 °F 20.9 °F 30.03 in East 5.0 mph 8.0 mph 89% 0.00 in 32 W/m2
15:12 23.7 °F 20.9 °F 30.03 in SE 5.0 mph 6.0 mph 89% 0.00 in 25 W/m2
15:18 23.8 °F 21.0 °F 30.03 in East 4.0 mph 6.0 mph 89% 0.00 in 25 W/m2
15:20 23.8 °F 21.0 °F 30.03 in ENE 3.0 mph 3.0 mph 89% 0.00 in 23 W/m2
15:26 23.8 °F 21.0 °F 30.03 in ENE 3.0 mph 4.0 mph 89% 0.00 in 19 W/m2
15:32 23.8 °F 21.3 °F 30.03 in ESE 3.0 mph 3.0 mph 90% 0.00 in 18 W/m2
15:38 23.9 °F 21.4 °F 30.03 in ESE 3.0 mph 7.0 mph 90% 0.00 in 12 W/m2
15:44 23.9 °F 21.4 °F 30.03 in ENE 4.0 mph 8.0 mph 90% 0.00 in 11 W/m2
15:50 23.9 °F 21.4 °F 30.03 in ENE 4.0 mph 4.0 mph 90% 0.00 in 9 W/m2
15:56 24.0 °F 21.5 °F 30.03 in East 4.0 mph 8.0 mph 90% 0.00 in 11 W/m2
16:02 24.0 °F 21.5 °F 30.03 in ENE 4.0 mph 5.0 mph 90% 0.00 in 7 W/m2
16:08 24.0 °F 21.5 °F 30.03 in ENE 3.0 mph 5.0 mph 90% 0.00 in 7 W/m2
16:14 24.1 °F 21.9 °F 30.03 in East 3.0 mph 8.0 mph 91% 0.00 in 5 W/m2
16:20 24.1 °F 21.9 °F 30.04 in ENE 3.0 mph 5.0 mph 91% 0.00 in 0 W/m2
16:28 24.2 °F 22.0 °F 30.04 in East 3.0 mph 5.0 mph 91% 0.00 in 0 W/m2
16:40 24.2 °F 22.0 °F 30.05 in East 4.0 mph 4.0 mph 91% 0.00 in 0 W/m2
16:46 24.2 °F 22.0 °F 30.04 in ENE 4.0 mph 5.0 mph 91% 0.00 in 0 W/m2
16:52 24.2 °F 22.0 °F 30.04 in ENE 3.0 mph 4.0 mph 91% 0.00 in 0 W/m2
16:58 24.2 °F 22.0 °F 30.03 in ENE 3.0 mph 4.0 mph 91% 0.00 in 0 W/m2
17:16 24.4 °F 22.2 °F 30.04 in East 4.0 mph 4.0 mph 91% 0.00 in 0 W/m2
17:22 24.4 °F 22.2 °F 30.04 in ENE 3.0 mph 4.0 mph 91% 0.00 in 0 W/m2
17:28 24.5 °F 22.2 °F 30.04 in ESE 3.0 mph 4.0 mph 91% 0.00 in 0 W/m2
17:34 24.5 °F 22.2 °F 30.03 in SE 3.0 mph 4.0 mph 91% 0.00 in 0 W/m2
17:46 24.5 °F 22.2 °F 30.04 in ENE 3.0 mph 3.0 mph 91% 0.00 in 0 W/m2
17:52 24.5 °F 22.2 °F 30.04 in ENE 3.0 mph 4.0 mph 91% 0.00 in 0 W/m2
17:58 24.6 °F 22.3 °F 30.04 in East 3.0 mph 4.0 mph 91% 0.00 in 0 W/m2
18:10 24.7 °F 22.4 °F 30.05 in ESE 2.0 mph 2.0 mph 91% 0.00 in 0 W/m2
18:12 24.7 °F 22.4 °F 30.05 in East 2.0 mph 3.0 mph 91% 0.00 in 0 W/m2
18:18 24.8 °F 22.5 °F 30.04 in ENE 2.0 mph 3.0 mph 91% 0.00 in 0 W/m2
18:30 24.9 °F 22.6 °F 30.05 in East 2.0 mph 2.0 mph 91% 0.00 in 0 W/m2
18:36 24.9 °F 22.6 °F 30.05 in East 2.0 mph 3.0 mph 91% 0.00 in 0 W/m2
18:42 25.0 °F 22.7 °F 30.05 in ENE 2.0 mph 5.0 mph 91% 0.00 in 0 W/m2
18:48 25.1 °F 22.8 °F 30.05 in East 2.0 mph 5.0 mph 91% 0.00 in 0 W/m2
18:52 25.1 °F 22.8 °F 30.05 in ENE 2.0 mph 3.0 mph 91% 0.00 in 0 W/m2
18:58 25.2 °F 22.7 °F 30.06 in ENE 3.0 mph 4.0 mph 90% 0.00 in 0 W/m2
19:10 25.3 °F 23.0 °F 30.05 in East 3.0 mph 3.0 mph 91% 0.00 in 0 W/m2
19:16 25.4 °F 22.9 °F 30.06 in ENE 3.0 mph 4.0 mph 90% 0.00 in 0 W/m2
19:22 25.5 °F 23.0 °F 30.06 in East 2.0 mph 3.0 mph 90% 0.00 in 0 W/m2
19:34 25.6 °F 23.1 °F 30.05 in SE 3.0 mph 3.0 mph 90% 0.00 in 0 W/m2
19:40 25.7 °F 23.4 °F 30.06 in SE 2.0 mph 3.0 mph 91% 0.00 in 0 W/m2
19:44 25.8 °F 23.5 °F 30.06 in SE 2.0 mph 3.0 mph 91% 0.00 in 0 W/m2
19:50 25.8 °F 23.5 °F 30.06 in ENE 1.0 mph 5.0 mph 91% 0.00 in 0 W/m2
19:54 25.9 °F 23.4 °F 30.05 in East 2.0 mph 5.0 mph 90% 0.00 in 0 W/m2
20:00 25.9 °F 23.4 °F 30.05 in East 3.0 mph 3.0 mph 90% 0.00 in 0 W/m2
20:02 25.9 °F 23.4 °F 30.05 in ENE 3.0 mph 3.0 mph 90% 0.00 in 0 W/m2
20:08 26.0 °F 23.5 °F 30.06 in East 1.0 mph 3.0 mph 90% 0.00 in 0 W/m2
20:18 26.1 °F 23.6 °F 30.05 in ESE 2.0 mph 5.0 mph 90% 0.00 in 0 W/m2
20:24 26.2 °F 23.7 °F 30.05 in East 2.0 mph 5.0 mph 90% 0.00 in 0 W/m2
20:30 26.3 °F 23.8 °F 30.05 in ENE 2.0 mph 2.0 mph 90% 0.00 in 0 W/m2
20:36 26.3 °F 23.8 °F 30.05 in East 2.0 mph 4.0 mph 90% 0.00 in 0 W/m2
20:42 26.4 °F 23.9 °F 30.05 in East 2.0 mph 2.0 mph 90% 0.00 in 0 W/m2
20:48 26.4 °F 23.9 °F 30.05 in ENE 1.0 mph 2.0 mph 90% 0.00 in 0 W/m2
20:54 26.5 °F 24.0 °F 30.05 in ENE 2.0 mph 2.0 mph 90% 0.00 in 0 W/m2
21:02 26.5 °F 24.0 °F 30.05 in ESE 1.0 mph 2.0 mph 90% 0.00 in 0 W/m2
21:08 26.6 °F 24.1 °F 30.05 in ESE 2.0 mph 3.0 mph 90% 0.00 in 0 W/m2
21:14 26.7 °F 24.2 °F 30.05 in ESE 2.0 mph 2.0 mph 90% 0.00 in 0 W/m2
21:20 26.7 °F 24.2 °F 30.05 in SE 2.0 mph 2.0 mph 90% 0.00 in 0 W/m2
21:26 26.7 °F 24.2 °F 30.04 in ENE 2.0 mph 2.0 mph 90% 0.00 in 0 W/m2
21:32 26.7 °F 24.2 °F 30.05 in SE 2.0 mph 2.0 mph 90% 0.00 in 0 W/m2
21:38 26.8 °F 24.3 °F 30.05 in ENE 1.0 mph 4.0 mph 90% 0.00 in 0 W/m2
21:46 26.9 °F 24.4 °F 30.05 in SE 1.0 mph 4.0 mph 90% 0.00 in 0 W/m2
21:52 27.1 °F 24.6 °F 30.04 in East 1.0 mph 3.0 mph 90% 0.00 in 0 W/m2
21:58 27.2 °F 24.7 °F 30.04 in ESE 2.0 mph 3.0 mph 90% 0.00 in 0 W/m2
22:02 27.2 °F 24.7 °F 30.05 in ESE 2.0 mph 2.0 mph 90% 0.00 in 0 W/m2
22:08 27.2 °F 24.7 °F 30.05 in ESE 1.0 mph 2.0 mph 90% 0.00 in 0 W/m2
22:18 27.3 °F 24.8 °F 30.05 in ESE 1.0 mph 1.0 mph 90% 0.00 in 0 W/m2
22:24 27.3 °F 25.0 °F 30.04 in Calm   1.0 mph 91% 0.00 in 0 W/m2
22:30 27.4 °F 25.1 °F 30.05 in Calm   2.0 mph 91% 0.00 in 0 W/m2
22:36 27.4 °F 25.1 °F 30.05 in ESE 1.0 mph 2.0 mph 91% 0.00 in 0 W/m2
22:42 27.4 °F 25.1 °F 30.03 in ESE 1.0 mph 2.0 mph 91% 0.00 in 0 W/m2
22:48 27.3 °F 25.0 °F 30.03 in ESE 1.0 mph 2.0 mph 91% 0.00 in 0 W/m2
22:54 27.4 °F 25.1 °F 30.03 in ESE 1.0 mph 1.0 mph 91% 0.00 in 0 W/m2
23:00 27.4 °F 25.1 °F 30.03 in ENE 1.0 mph 1.0 mph 91% 0.00 in 0 W/m2
23:06 27.3 °F 25.0 °F 30.03 in ENE 2.0 mph 3.0 mph 91% 0.00 in 0 W/m2
23:12 27.4 °F 25.1 °F 30.03 in ENE 1.0 mph 1.0 mph 91% 0.00 in 0 W/m2
23:20 27.4 °F 25.1 °F 30.02 in ESE 1.0 mph 1.0 mph 91% 0.00 in 0 W/m2
23:26 27.4 °F 25.1 °F 30.02 in NE 1.0 mph 3.0 mph 91% 0.00 in 0 W/m2
23:32 27.4 °F 25.1 °F 30.02 in NE 1.0 mph 1.0 mph 91% 0.00 in 0 W/m2
23:38 27.4 °F 25.1 °F 30.02 in Calm   1.0 mph 91% 0.00 in 0 W/m2
23:44 27.4 °F 25.1 °F 30.02 in ENE 1.0 mph 4.0 mph 91% 0.00 in 0 W/m2
23:50 27.4 °F 25.1 °F 30.02 in ENE 1.0 mph 1.0 mph 91% 0.00 in 0 W/m2
23:56 27.5 °F 25.2 °F 30.02 in ENE 1.0 mph 2.0 mph 91% 0.00 in 0 W/m2
Country Meadow, Clay, NY, USA
Compliments of Weather Underground - 2 mb